sensor_id;sensor_type;location;lat;lon;timestamp;temperature;humidity
32173;DHT22;18679;45.190;5.722;2023-05-10T00:01:58;18.60;66.70
32173;DHT22;18679;45.190;5.722;2023-05-10T00:05:14;18.50;67.00
32173;DHT22;18679;45.190;5.722;2023-05-10T00:08:22;18.40;66.90
32173;DHT22;18679;45.190;5.722;2023-05-10T00:11:30;18.30;66.90
32173;DHT22;18679;45.190;5.722;2023-05-10T00:14:40;18.10;67.00
32173;DHT22;18679;45.190;5.722;2023-05-10T00:17:50;18.10;67.30
32173;DHT22;18679;45.190;5.722;2023-05-10T00:21:02;18.00;67.10
32173;DHT22;18679;45.190;5.722;2023-05-10T00:24:17;18.00;67.10
32173;DHT22;18679;45.190;5.722;2023-05-10T00:27:22;18.00;67.20
32173;DHT22;18679;45.190;5.722;2023-05-10T00:30:31;18.00;67.30
32173;DHT22;18679;45.190;5.722;2023-05-10T00:33:42;18.00;67.30
32173;DHT22;18679;45.190;5.722;2023-05-10T00:36:51;18.10;67.40
32173;DHT22;18679;45.190;5.722;2023-05-10T00:39:57;18.10;67.50
32173;DHT22;18679;45.190;5.722;2023-05-10T00:43:17;18.20;67.60
32173;DHT22;18679;45.190;5.722;2023-05-10T00:46:24;18.20;67.50
32173;DHT22;18679;45.190;5.722;2023-05-10T00:49:31;18.30;67.50
32173;DHT22;18679;45.190;5.722;2023-05-10T00:52:44;18.40;67.40
32173;DHT22;18679;45.190;5.722;2023-05-10T00:55:52;18.40;67.20
32173;DHT22;18679;45.190;5.722;2023-05-10T00:59:08;18.40;67.20
32173;DHT22;18679;45.190;5.722;2023-05-10T01:02:17;18.40;67.00
32173;DHT22;18679;45.190;5.722;2023-05-10T01:05:25;18.40;66.80
32173;DHT22;18679;45.190;5.722;2023-05-10T01:08:38;18.30;66.50
32173;DHT22;18679;45.190;5.722;2023-05-10T01:11:53;18.30;66.30
32173;DHT22;18679;45.190;5.722;2023-05-10T01:15:10;18.20;66.40
32173;DHT22;18679;45.190;5.722;2023-05-10T01:18:21;18.10;66.40
32173;DHT22;18679;45.190;5.722;2023-05-10T01:40:00;17.60;67.50
32173;DHT22;18679;45.190;5.722;2023-05-10T01:43:25;17.50;67.60
32173;DHT22;18679;45.190;5.722;2023-05-10T01:46:38;17.50;67.70
32173;DHT22;18679;45.190;5.722;2023-05-10T01:49:55;17.50;67.80
32173;DHT22;18679;45.190;5.722;2023-05-10T01:53:13;17.60;67.80
32173;DHT22;18679;45.190;5.722;2023-05-10T01:56:27;17.60;67.70
32173;DHT22;18679;45.190;5.722;2023-05-10T01:59:35;17.60;67.60
32173;DHT22;18679;45.190;5.722;2023-05-10T02:02:52;17.60;67.60
32173;DHT22;18679;45.190;5.722;2023-05-10T02:05:58;17.60;67.50
32173;DHT22;18679;45.190;5.722;2023-05-10T02:09:07;17.60;67.50
32173;DHT22;18679;45.190;5.722;2023-05-10T02:12:20;17.60;67.50
32173;DHT22;18679;45.190;5.722;2023-05-10T02:15:31;17.60;67.40
32173;DHT22;18679;45.190;5.722;2023-05-10T02:18:37;17.50;67.50
32173;DHT22;18679;45.190;5.722;2023-05-10T02:21:52;17.50;67.60
32173;DHT22;18679;45.190;5.722;2023-05-10T02:25:05;17.50;67.50
32173;DHT22;18679;45.190;5.722;2023-05-10T02:28:24;17.40;67.80
32173;DHT22;18679;45.190;5.722;2023-05-10T02:31:33;17.40;67.90
32173;DHT22;18679;45.190;5.722;2023-05-10T02:34:47;17.40;67.90
32173;DHT22;18679;45.190;5.722;2023-05-10T02:37:58;17.50;68.00
32173;DHT22;18679;45.190;5.722;2023-05-10T02:41:15;17.50;68.00
32173;DHT22;18679;45.190;5.722;2023-05-10T02:44:28;17.60;67.90
32173;DHT22;18679;45.190;5.722;2023-05-10T02:47:37;17.70;67.50
32173;DHT22;18679;45.190;5.722;2023-05-10T02:50:50;17.70;67.00
32173;DHT22;18679;45.190;5.722;2023-05-10T02:54:14;17.80;66.70
32173;DHT22;18679;45.190;5.722;2023-05-10T02:57:34;17.80;66.40
32173;DHT22;18679;45.190;5.722;2023-05-10T03:00:50;17.90;66.10
32173;DHT22;18679;45.190;5.722;2023-05-10T03:04:00;17.90;65.80
32173;DHT22;18679;45.190;5.722;2023-05-10T03:07:15;18.00;65.50
32173;DHT22;18679;45.190;5.722;2023-05-10T03:10:29;18.00;64.60
32173;DHT22;18679;45.190;5.722;2023-05-10T03:17:35;18.10;62.20
32173;DHT22;18679;45.190;5.722;2023-05-10T03:20:57;18.10;61.10
32173;DHT22;18679;45.190;5.722;2023-05-10T03:24:08;18.10;60.40
32173;DHT22;18679;45.190;5.722;2023-05-10T03:27:26;18.10;60.00
32173;DHT22;18679;45.190;5.722;2023-05-10T03:30:32;18.10;59.80
32173;DHT22;18679;45.190;5.722;2023-05-10T03:33:49;18.10;59.80
32173;DHT22;18679;45.190;5.722;2023-05-10T03:37:04;17.90;59.90
32173;DHT22;18679;45.190;5.722;2023-05-10T03:40:17;17.80;60.00
32173;DHT22;18679;45.190;5.722;2023-05-10T03:43:30;17.70;60.00
32173;DHT22;18679;45.190;5.722;2023-05-10T03:46:38;17.60;60.30
32173;DHT22;18679;45.190;5.722;2023-05-10T03:49:49;17.60;60.60
32173;DHT22;18679;45.190;5.722;2023-05-10T03:53:01;17.60;60.80
32173;DHT22;18679;45.190;5.722;2023-05-10T03:56:10;17.60;60.50
32173;DHT22;18679;45.190;5.722;2023-05-10T03:59:20;17.70;60.50
32173;DHT22;18679;45.190;5.722;2023-05-10T04:02:32;17.70;60.80
32173;DHT22;18679;45.190;5.722;2023-05-10T04:05:40;17.70;60.80
32173;DHT22;18679;45.190;5.722;2023-05-10T04:08:50;17.60;60.90
32173;DHT22;18679;45.190;5.722;2023-05-10T04:11:59;17.70;60.90
32173;DHT22;18679;45.190;5.722;2023-05-10T04:15:09;17.60;61.20
32173;DHT22;18679;45.190;5.722;2023-05-10T04:18:20;17.60;61.40
32173;DHT22;18679;45.190;5.722;2023-05-10T04:21:30;17.50;61.40
32173;DHT22;18679;45.190;5.722;2023-05-10T04:24:39;17.40;61.30
32173;DHT22;18679;45.190;5.722;2023-05-10T04:27:45;17.40;61.10
32173;DHT22;18679;45.190;5.722;2023-05-10T04:31:09;17.40;61.00
32173;DHT22;18679;45.190;5.722;2023-05-10T04:34:16;17.40;61.00
32173;DHT22;18679;45.190;5.722;2023-05-10T04:37:25;17.40;61.00
32173;DHT22;18679;45.190;5.722;2023-05-10T04:40:35;17.30;61.70
32173;DHT22;18679;45.190;5.722;2023-05-10T04:43:41;17.10;62.30
32173;DHT22;18679;45.190;5.722;2023-05-10T04:46:50;17.00;63.50
32173;DHT22;18679;45.190;5.722;2023-05-10T04:50:10;16.80;64.40
32173;DHT22;18679;45.190;5.722;2023-05-10T04:53:16;16.60;65.30
32173;DHT22;18679;45.190;5.722;2023-05-10T04:56:25;16.50;66.10
32173;DHT22;18679;45.190;5.722;2023-05-10T04:59:38;16.40;66.20
32173;DHT22;18679;45.190;5.722;2023-05-10T05:02:48;16.30;66.70
32173;DHT22;18679;45.190;5.722;2023-05-10T05:05:56;16.30;67.20
32173;DHT22;18679;45.190;5.722;2023-05-10T05:09:07;16.30;67.40
32173;DHT22;18679;45.190;5.722;2023-05-10T05:12:16;16.30;67.40
32173;DHT22;18679;45.190;5.722;2023-05-10T05:15:28;16.30;67.70
32173;DHT22;18679;45.190;5.722;2023-05-10T05:18:36;16.40;67.80
32173;DHT22;18679;45.190;5.722;2023-05-10T05:21:40;16.40;67.70
32173;DHT22;18679;45.190;5.722;2023-05-10T05:24:53;16.50;67.50
32173;DHT22;18679;45.190;5.722;2023-05-10T05:28:10;16.50;67.20
32173;DHT22;18679;45.190;5.722;2023-05-10T05:31:16;16.50;68.00
32173;DHT22;18679;45.190;5.722;2023-05-10T05:34:25;16.60;67.30
32173;DHT22;18679;45.190;5.722;2023-05-10T05:37:34;16.60;67.00
32173;DHT22;18679;45.190;5.722;2023-05-10T05:40:41;16.70;66.50
32173;DHT22;18679;45.190;5.722;2023-05-10T05:43:53;16.80;65.90
32173;DHT22;18679;45.190;5.722;2023-05-10T05:47:11;16.80;65.70
32173;DHT22;18679;45.190;5.722;2023-05-10T05:50:19;16.90;65.30
32173;DHT22;18679;45.190;5.722;2023-05-10T05:53:30;16.90;64.90
32173;DHT22;18679;45.190;5.722;2023-05-10T05:56:39;16.80;63.20
32173;DHT22;18679;45.190;5.722;2023-05-10T05:59:48;16.80;62.40
32173;DHT22;18679;45.190;5.722;2023-05-10T06:02:54;16.70;61.60
32173;DHT22;18679;45.190;5.722;2023-05-10T06:06:12;16.80;60.20
32173;DHT22;18679;45.190;5.722;2023-05-10T06:09:19;16.90;59.90
32173;DHT22;18679;45.190;5.722;2023-05-10T06:12:27;17.00;59.20
32173;DHT22;18679;45.190;5.722;2023-05-10T06:15:38;17.00;58.80
32173;DHT22;18679;45.190;5.722;2023-05-10T06:18:48;17.10;58.80
32173;DHT22;18679;45.190;5.722;2023-05-10T06:21:58;17.20;58.50
32173;DHT22;18679;45.190;5.722;2023-05-10T06:25:15;17.00;57.50
32173;DHT22;18679;45.190;5.722;2023-05-10T06:28:26;17.00;57.50
32173;DHT22;18679;45.190;5.722;2023-05-10T06:31:40;17.00;57.80
32173;DHT22;18679;45.190;5.722;2023-05-10T06:34:50;17.10;57.90
32173;DHT22;18679;45.190;5.722;2023-05-10T06:37:57;17.10;57.70
32173;DHT22;18679;45.190;5.722;2023-05-10T06:41:13;17.10;57.60
32173;DHT22;18679;45.190;5.722;2023-05-10T06:44:20;17.10;57.30
32173;DHT22;18679;45.190;5.722;2023-05-10T06:47:30;17.10;57.10
32173;DHT22;18679;45.190;5.722;2023-05-10T06:50:38;17.20;57.10
32173;DHT22;18679;45.190;5.722;2023-05-10T06:53:50;17.20;57.00
32173;DHT22;18679;45.190;5.722;2023-05-10T06:56:58;17.20;57.20
32173;DHT22;18679;45.190;5.722;2023-05-10T07:00:08;17.20;57.20
32173;DHT22;18679;45.190;5.722;2023-05-10T07:03:20;17.20;57.10
32173;DHT22;18679;45.190;5.722;2023-05-10T07:06:30;17.20;56.90
32173;DHT22;18679;45.190;5.722;2023-05-10T07:09:47;17.20;56.80
32173;DHT22;18679;45.190;5.722;2023-05-10T07:12:56;17.20;56.60
32173;DHT22;18679;45.190;5.722;2023-05-10T07:16:32;17.20;56.30
32173;DHT22;18679;45.190;5.722;2023-05-10T07:19:42;17.10;56.20
32173;DHT22;18679;45.190;5.722;2023-05-10T07:22:53;17.10;56.00
32173;DHT22;18679;45.190;5.722;2023-05-10T07:26:05;17.10;55.30
32173;DHT22;18679;45.190;5.722;2023-05-10T07:29:21;17.20;55.00
32173;DHT22;18679;45.190;5.722;2023-05-10T07:32:30;17.20;55.00
32173;DHT22;18679;45.190;5.722;2023-05-10T07:35:43;17.30;54.80
32173;DHT22;18679;45.190;5.722;2023-05-10T07:38:56;17.40;54.30
32173;DHT22;18679;45.190;5.722;2023-05-10T07:42:15;17.40;54.30
32173;DHT22;18679;45.190;5.722;2023-05-10T07:45:26;17.40;54.20
32173;DHT22;18679;45.190;5.722;2023-05-10T07:48:38;17.50;54.00
32173;DHT22;18679;45.190;5.722;2023-05-10T07:51:53;17.50;53.80
32173;DHT22;18679;45.190;5.722;2023-05-10T07:55:07;17.60;53.50
32173;DHT22;18679;45.190;5.722;2023-05-10T07:58:25;17.50;53.10
32173;DHT22;18679;45.190;5.722;2023-05-10T08:01:36;17.50;53.20
32173;DHT22;18679;45.190;5.722;2023-05-10T08:04:54;17.60;53.30
32173;DHT22;18679;45.190;5.722;2023-05-10T08:08:04;17.70;52.90
32173;DHT22;18679;45.190;5.722;2023-05-10T08:11:20;17.70;52.70
32173;DHT22;18679;45.190;5.722;2023-05-10T08:14:30;17.80;52.90
32173;DHT22;18679;45.190;5.722;2023-05-10T08:17:42;17.80;52.80
32173;DHT22;18679;45.190;5.722;2023-05-10T08:21:02;17.80;52.60
32173;DHT22;18679;45.190;5.722;2023-05-10T08:24:15;17.90;52.70
32173;DHT22;18679;45.190;5.722;2023-05-10T08:27:26;17.90;52.90
32173;DHT22;18679;45.190;5.722;2023-05-10T08:30:36;18.00;53.00
32173;DHT22;18679;45.190;5.722;2023-05-10T08:33:50;18.10;52.90
32173;DHT22;18679;45.190;5.722;2023-05-10T08:37:00;18.30;53.30
32173;DHT22;18679;45.190;5.722;2023-05-10T08:40:20;18.40;52.30
32173;DHT22;18679;45.190;5.722;2023-05-10T08:43:32;18.40;52.00
32173;DHT22;18679;45.190;5.722;2023-05-10T08:46:43;18.60;51.90
32173;DHT22;18679;45.190;5.722;2023-05-10T08:50:03;18.80;51.50
32173;DHT22;18679;45.190;5.722;2023-05-10T08:53:14;19.00;50.60
32173;DHT22;18679;45.190;5.722;2023-05-10T08:56:26;19.00;50.10
32173;DHT22;18679;45.190;5.722;2023-05-10T08:59:35;19.10;50.00
32173;DHT22;18679;45.190;5.722;2023-05-10T09:02:50;19.20;49.70
32173;DHT22;18679;45.190;5.722;2023-05-10T09:06:04;19.10;49.40
32173;DHT22;18679;45.190;5.722;2023-05-10T09:09:17;19.10;49.00
32173;DHT22;18679;45.190;5.722;2023-05-10T09:12:38;19.10;48.60
32173;DHT22;18679;45.190;5.722;2023-05-10T09:15:55;19.20;48.60
32173;DHT22;18679;45.190;5.722;2023-05-10T09:19:15;19.10;47.60
32173;DHT22;18679;45.190;5.722;2023-05-10T09:22:24;19.00;47.80
32173;DHT22;18679;45.190;5.722;2023-05-10T09:25:36;19.00;47.60
32173;DHT22;18679;45.190;5.722;2023-05-10T09:28:55;19.00;47.40
32173;DHT22;18679;45.190;5.722;2023-05-10T09:32:07;19.10;47.00
32173;DHT22;18679;45.190;5.722;2023-05-10T09:35:28;19.40;47.00
32173;DHT22;18679;45.190;5.722;2023-05-10T09:38:48;19.40;46.80
32173;DHT22;18679;45.190;5.722;2023-05-10T09:42:04;19.40;46.40
32173;DHT22;18679;45.190;5.722;2023-05-10T09:45:15;19.40;46.10
32173;DHT22;18679;45.190;5.722;2023-05-10T09:48:26;19.40;45.90
32173;DHT22;18679;45.190;5.722;2023-05-10T09:51:37;19.50;45.80
32173;DHT22;18679;45.190;5.722;2023-05-10T09:54:56;19.60;45.50
32173;DHT22;18679;45.190;5.722;2023-05-10T09:58:16;19.70;45.30
32173;DHT22;18679;45.190;5.722;2023-05-10T10:01:32;19.80;44.50
32173;DHT22;18679;45.190;5.722;2023-05-10T10:04:42;19.80;44.30
32173;DHT22;18679;45.190;5.722;2023-05-10T10:07:52;19.80;44.00
32173;DHT22;18679;45.190;5.722;2023-05-10T10:11:08;19.80;43.70
32173;DHT22;18679;45.190;5.722;2023-05-10T10:14:21;19.90;43.70
32173;DHT22;18679;45.190;5.722;2023-05-10T10:17:32;20.00;43.70
32173;DHT22;18679;45.190;5.722;2023-05-10T10:20:41;20.10;43.40
32173;DHT22;18679;45.190;5.722;2023-05-10T10:23:51;20.30;43.10
32173;DHT22;18679;45.190;5.722;2023-05-10T10:27:26;20.30;43.20
32173;DHT22;18679;45.190;5.722;2023-05-10T10:30:43;20.50;43.40
32173;DHT22;18679;45.190;5.722;2023-05-10T10:34:11;20.60;43.10
32173;DHT22;18679;45.190;5.722;2023-05-10T10:37:50;20.70;42.50
32173;DHT22;18679;45.190;5.722;2023-05-10T10:41:35;20.70;41.90
32173;DHT22;18679;45.190;5.722;2023-05-10T10:44:48;20.80;41.00
32173;DHT22;18679;45.190;5.722;2023-05-10T10:48:26;20.90;40.10
32173;DHT22;18679;45.190;5.722;2023-05-10T10:51:40;20.80;39.90
32173;DHT22;18679;45.190;5.722;2023-05-10T10:55:21;20.90;39.70
32173;DHT22;18679;45.190;5.722;2023-05-10T10:58:38;21.20;38.60
32173;DHT22;18679;45.190;5.722;2023-05-10T11:01:55;21.70;38.00
32173;DHT22;18679;45.190;5.722;2023-05-10T11:08:47;22.80;35.70
32173;DHT22;18679;45.190;5.722;2023-05-10T11:12:14;23.00;34.70
32173;DHT22;18679;45.190;5.722;2023-05-10T11:15:31;22.80;35.30
32173;DHT22;18679;45.190;5.722;2023-05-10T11:19:02;22.50;35.70
32173;DHT22;18679;45.190;5.722;2023-05-10T11:22:20;22.50;36.10
32173;DHT22;18679;45.190;5.722;2023-05-10T11:25:31;22.60;36.20
32173;DHT22;18679;45.190;5.722;2023-05-10T11:28:46;22.80;36.60
32173;DHT22;18679;45.190;5.722;2023-05-10T11:32:02;22.80;37.00
32173;DHT22;18679;45.190;5.722;2023-05-10T11:35:21;22.80;37.50
32173;DHT22;18679;45.190;5.722;2023-05-10T11:38:35;22.60;38.00
32173;DHT22;18679;45.190;5.722;2023-05-10T11:41:49;22.50;38.40
32173;DHT22;18679;45.190;5.722;2023-05-10T11:45:01;22.40;38.20
32173;DHT22;18679;45.190;5.722;2023-05-10T11:48:15;22.30;38.20
32173;DHT22;18679;45.190;5.722;2023-05-10T11:51:27;22.30;38.00
32173;DHT22;18679;45.190;5.722;2023-05-10T11:54:35;22.10;37.90
32173;DHT22;18679;45.190;5.722;2023-05-10T11:57:44;21.90;38.40
32173;DHT22;18679;45.190;5.722;2023-05-10T12:01:06;21.80;39.10
32173;DHT22;18679;45.190;5.722;2023-05-10T12:04:18;21.80;39.40
32173;DHT22;18679;45.190;5.722;2023-05-10T12:07:27;22.30;38.90
32173;DHT22;18679;45.190;5.722;2023-05-10T12:10:36;22.90;38.10
32173;DHT22;18679;45.190;5.722;2023-05-10T12:13:47;23.10;37.50
32173;DHT22;18679;45.190;5.722;2023-05-10T12:16:59;22.90;37.40
32173;DHT22;18679;45.190;5.722;2023-05-10T12:20:22;22.60;37.50
32173;DHT22;18679;45.190;5.722;2023-05-10T12:23:31;22.40;37.80
32173;DHT22;18679;45.190;5.722;2023-05-10T12:26:45;22.30;37.80
32173;DHT22;18679;45.190;5.722;2023-05-10T12:30:00;22.50;37.70
32173;DHT22;18679;45.190;5.722;2023-05-10T12:33:17;22.80;37.50
32173;DHT22;18679;45.190;5.722;2023-05-10T12:36:25;23.50;36.20
32173;DHT22;18679;45.190;5.722;2023-05-10T12:39:45;24.20;34.80
32173;DHT22;18679;45.190;5.722;2023-05-10T12:42:54;24.40;34.00
32173;DHT22;18679;45.190;5.722;2023-05-10T12:46:16;24.30;33.90
32173;DHT22;18679;45.190;5.722;2023-05-10T12:49:26;23.90;34.90
32173;DHT22;18679;45.190;5.722;2023-05-10T12:52:31;23.80;34.60
32173;DHT22;18679;45.190;5.722;2023-05-10T12:55:41;23.60;35.00
32173;DHT22;18679;45.190;5.722;2023-05-10T12:58:58;23.50;35.20
32173;DHT22;18679;45.190;5.722;2023-05-10T13:02:09;23.40;35.50
32173;DHT22;18679;45.190;5.722;2023-05-10T13:05:20;23.30;36.00
32173;DHT22;18679;45.190;5.722;2023-05-10T13:08:30;23.20;36.30
32173;DHT22;18679;45.190;5.722;2023-05-10T13:11:38;23.00;36.40
32173;DHT22;18679;45.190;5.722;2023-05-10T13:14:55;22.90;36.50
32173;DHT22;18679;45.190;5.722;2023-05-10T13:18:14;22.70;36.20
32173;DHT22;18679;45.190;5.722;2023-05-10T13:21:25;22.60;36.20
32173;DHT22;18679;45.190;5.722;2023-05-10T13:24:30;22.50;36.30
32173;DHT22;18679;45.190;5.722;2023-05-10T13:27:41;22.60;36.20
32173;DHT22;18679;45.190;5.722;2023-05-10T13:30:57;22.70;35.90
32173;DHT22;18679;45.190;5.722;2023-05-10T13:34:07;22.80;35.80
32173;DHT22;18679;45.190;5.722;2023-05-10T13:37:19;23.90;34.50
32173;DHT22;18679;45.190;5.722;2023-05-10T13:40:28;25.70;31.80
32173;DHT22;18679;45.190;5.722;2023-05-10T13:43:38;27.40;29.60
32173;DHT22;18679;45.190;5.722;2023-05-10T13:46:47;28.60;28.20
32173;DHT22;18679;45.190;5.722;2023-05-10T13:50:27;29.80;27.10
32173;DHT22;18679;45.190;5.722;2023-05-10T13:53:35;30.70;25.90
32173;DHT22;18679;45.190;5.722;2023-05-10T13:56:48;31.20;25.00
32173;DHT22;18679;45.190;5.722;2023-05-10T14:00:01;31.50;24.40
32173;DHT22;18679;45.190;5.722;2023-05-10T14:03:16;31.60;23.80
32173;DHT22;18679;45.190;5.722;2023-05-10T14:06:28;31.60;23.60
32173;DHT22;18679;45.190;5.722;2023-05-10T14:09:35;31.60;23.10
32173;DHT22;18679;45.190;5.722;2023-05-10T14:12:49;31.60;23.10
32173;DHT22;18679;45.190;5.722;2023-05-10T14:16:00;31.80;23.20
32173;DHT22;18679;45.190;5.722;2023-05-10T14:19:19;32.20;23.10
32173;DHT22;18679;45.190;5.722;2023-05-10T14:22:27;32.90;22.60
32173;DHT22;18679;45.190;5.722;2023-05-10T14:25:37;32.90;22.40
32173;DHT22;18679;45.190;5.722;2023-05-10T14:28:44;32.60;22.20
32173;DHT22;18679;45.190;5.722;2023-05-10T14:32:02;32.60;21.70
32173;DHT22;18679;45.190;5.722;2023-05-10T14:35:12;33.00;21.50
32173;DHT22;18679;45.190;5.722;2023-05-10T14:38:25;33.30;21.30
32173;DHT22;18679;45.190;5.722;2023-05-10T14:41:35;33.50;20.90
32173;DHT22;18679;45.190;5.722;2023-05-10T14:44:39;33.10;21.20
32173;DHT22;18679;45.190;5.722;2023-05-10T14:47:48;32.10;21.90
32173;DHT22;18679;45.190;5.722;2023-05-10T14:51:03;30.90;22.80
32173;DHT22;18679;45.190;5.722;2023-05-10T14:54:13;29.40;24.00
32173;DHT22;18679;45.190;5.722;2023-05-10T14:57:18;28.10;25.00
32173;DHT22;18679;45.190;5.722;2023-05-10T15:00:28;27.10;26.00
32173;DHT22;18679;45.190;5.722;2023-05-10T15:03:36;26.20;27.00
32173;DHT22;18679;45.190;5.722;2023-05-10T15:06:44;25.40;27.80
32173;DHT22;18679;45.190;5.722;2023-05-10T15:10:04;24.70;28.70
32173;DHT22;18679;45.190;5.722;2023-05-10T15:13:18;24.20;29.50
32173;DHT22;18679;45.190;5.722;2023-05-10T15:16:27;23.90;30.10
32173;DHT22;18679;45.190;5.722;2023-05-10T15:19:37;23.70;30.70
32173;DHT22;18679;45.190;5.722;2023-05-10T15:22:44;24.20;30.40
32173;DHT22;18679;45.190;5.722;2023-05-10T15:25:58;25.70;29.00
32173;DHT22;18679;45.190;5.722;2023-05-10T15:29:12;27.10;27.40
32173;DHT22;18679;45.190;5.722;2023-05-10T15:32:26;28.30;26.40
32173;DHT22;18679;45.190;5.722;2023-05-10T15:35:36;29.10;25.60
32173;DHT22;18679;45.190;5.722;2023-05-10T15:38:45;30.00;24.90
32173;DHT22;18679;45.190;5.722;2023-05-10T15:41:56;30.70;24.00
32173;DHT22;18679;45.190;5.722;2023-05-10T15:45:13;31.20;23.10
32173;DHT22;18679;45.190;5.722;2023-05-10T15:48:22;31.60;22.50
32173;DHT22;18679;45.190;5.722;2023-05-10T15:51:33;31.10;22.30
32173;DHT22;18679;45.190;5.722;2023-05-10T15:54:40;29.90;23.10
32173;DHT22;18679;45.190;5.722;2023-05-10T15:57:47;28.80;24.20
32173;DHT22;18679;45.190;5.722;2023-05-10T16:01:00;27.80;25.00
32173;DHT22;18679;45.190;5.722;2023-05-10T16:04:17;27.00;25.70
32173;DHT22;18679;45.190;5.722;2023-05-10T16:07:31;26.40;26.20
32173;DHT22;18679;45.190;5.722;2023-05-10T16:10:41;26.30;26.50
32173;DHT22;18679;45.190;5.722;2023-05-10T16:13:50;27.20;25.90
32173;DHT22;18679;45.190;5.722;2023-05-10T16:17:00;28.30;25.10
32173;DHT22;18679;45.190;5.722;2023-05-10T16:20:15;29.20;24.20
32173;DHT22;18679;45.190;5.722;2023-05-10T16:23:24;29.90;23.70
32173;DHT22;18679;45.190;5.722;2023-05-10T16:26:28;30.60;23.30
32173;DHT22;18679;45.190;5.722;2023-05-10T16:29:36;31.20;22.70
32173;DHT22;18679;45.190;5.722;2023-05-10T16:32:44;31.70;22.40
32173;DHT22;18679;45.190;5.722;2023-05-10T16:35:53;32.10;22.10
32173;DHT22;18679;45.190;5.722;2023-05-10T16:39:05;32.00;21.80
32173;DHT22;18679;45.190;5.722;2023-05-10T16:42:18;30.90;22.50
32173;DHT22;18679;45.190;5.722;2023-05-10T16:45:24;29.50;23.60
32173;DHT22;18679;45.190;5.722;2023-05-10T16:48:33;28.20;24.60
32173;DHT22;18679;45.190;5.722;2023-05-10T16:51:42;27.20;25.50
32173;DHT22;18679;45.190;5.722;2023-05-10T16:54:49;26.20;26.40
32173;DHT22;18679;45.190;5.722;2023-05-10T16:57:54;25.30;27.30
32173;DHT22;18679;45.190;5.722;2023-05-10T17:01:08;24.50;28.40
32173;DHT22;18679;45.190;5.722;2023-05-10T17:04:17;23.80;29.50
32173;DHT22;18679;45.190;5.722;2023-05-10T17:07:23;23.20;30.00
32173;DHT22;18679;45.190;5.722;2023-05-10T17:10:31;22.90;31.00
32173;DHT22;18679;45.190;5.722;2023-05-10T17:13:36;22.50;32.00
32173;DHT22;18679;45.190;5.722;2023-05-10T17:16:43;22.10;32.60
32173;DHT22;18679;45.190;5.722;2023-05-10T17:19:55;21.90;33.20
32173;DHT22;18679;45.190;5.722;2023-05-10T17:23:04;21.60;33.80
32173;DHT22;18679;45.190;5.722;2023-05-10T17:26:07;21.40;34.20
32173;DHT22;18679;45.190;5.722;2023-05-10T17:29:11;21.30;34.50
32173;DHT22;18679;45.190;5.722;2023-05-10T17:32:20;21.10;34.90
32173;DHT22;18679;45.190;5.722;2023-05-10T17:35:23;20.90;35.50
32173;DHT22;18679;45.190;5.722;2023-05-10T17:38:31;20.80;35.80
32173;DHT22;18679;45.190;5.722;2023-05-10T17:41:44;20.70;36.20
32173;DHT22;18679;45.190;5.722;2023-05-10T17:44:58;20.60;36.70
32173;DHT22;18679;45.190;5.722;2023-05-10T17:48:12;20.50;37.00
32173;DHT22;18679;45.190;5.722;2023-05-10T17:51:24;20.50;37.20
32173;DHT22;18679;45.190;5.722;2023-05-10T17:54:30;20.40;37.60
32173;DHT22;18679;45.190;5.722;2023-05-10T17:57:36;20.30;37.60
32173;DHT22;18679;45.190;5.722;2023-05-10T18:00:47;20.20;37.90
32173;DHT22;18679;45.190;5.722;2023-05-10T18:03:57;20.10;38.10
32173;DHT22;18679;45.190;5.722;2023-05-10T18:07:09;20.10;38.20
32173;DHT22;18679;45.190;5.722;2023-05-10T18:10:39;20.00;38.40
32173;DHT22;18679;45.190;5.722;2023-05-10T18:13:50;19.90;38.60
32173;DHT22;18679;45.190;5.722;2023-05-10T18:17:00;19.80;38.80
32173;DHT22;18679;45.190;5.722;2023-05-10T18:20:05;19.80;38.90
32173;DHT22;18679;45.190;5.722;2023-05-10T18:23:14;19.80;39.10
32173;DHT22;18679;45.190;5.722;2023-05-10T18:26:23;19.80;39.20
32173;DHT22;18679;45.190;5.722;2023-05-10T18:29:28;19.80;39.40
32173;DHT22;18679;45.190;5.722;2023-05-10T18:32:36;19.70;39.30
32173;DHT22;18679;45.190;5.722;2023-05-10T18:35:53;19.70;39.20
32173;DHT22;18679;45.190;5.722;2023-05-10T18:38:58;19.70;39.10
32173;DHT22;18679;45.190;5.722;2023-05-10T18:42:05;19.70;39.00
32173;DHT22;18679;45.190;5.722;2023-05-10T18:45:09;19.70;39.10
32173;DHT22;18679;45.190;5.722;2023-05-10T18:48:15;19.60;39.20
32173;DHT22;18679;45.190;5.722;2023-05-10T18:51:20;19.50;38.80
32173;DHT22;18679;45.190;5.722;2023-05-10T18:54:27;19.50;38.60
32173;DHT22;18679;45.190;5.722;2023-05-10T18:57:41;19.40;38.30
32173;DHT22;18679;45.190;5.722;2023-05-10T19:00:52;19.30;38.00
32173;DHT22;18679;45.190;5.722;2023-05-10T19:03:57;19.30;37.80
32173;DHT22;18679;45.190;5.722;2023-05-10T19:07:10;19.20;37.60
32173;DHT22;18679;45.190;5.722;2023-05-10T19:10:20;19.20;37.50
32173;DHT22;18679;45.190;5.722;2023-05-10T19:13:27;19.20;37.50
32173;DHT22;18679;45.190;5.722;2023-05-10T19:16:31;19.10;37.50
32173;DHT22;18679;45.190;5.722;2023-05-10T19:19:37;19.10;37.50
32173;DHT22;18679;45.190;5.722;2023-05-10T19:22:43;19.10;37.50
32173;DHT22;18679;45.190;5.722;2023-05-10T19:25:52;19.00;37.70
32173;DHT22;18679;45.190;5.722;2023-05-10T19:28:59;19.00;38.00
32173;DHT22;18679;45.190;5.722;2023-05-10T19:32:04;19.00;38.20
32173;DHT22;18679;45.190;5.722;2023-05-10T19:35:14;19.00;38.40
32173;DHT22;18679;45.190;5.722;2023-05-10T19:38:20;18.90;38.40
32173;DHT22;18679;45.190;5.722;2023-05-10T19:41:23;19.00;38.50
32173;DHT22;18679;45.190;5.722;2023-05-10T19:44:29;19.00;38.40
32173;DHT22;18679;45.190;5.722;2023-05-10T19:47:38;19.00;38.40
32173;DHT22;18679;45.190;5.722;2023-05-10T19:50:45;19.00;38.40
32173;DHT22;18679;45.190;5.722;2023-05-10T19:53:51;19.10;38.60
32173;DHT22;18679;45.190;5.722;2023-05-10T19:56:56;19.10;38.80
32173;DHT22;18679;45.190;5.722;2023-05-10T20:00:03;19.10;39.10
32173;DHT22;18679;45.190;5.722;2023-05-10T20:03:14;19.10;39.30
32173;DHT22;18679;45.190;5.722;2023-05-10T20:06:20;19.10;40.10
32173;DHT22;18679;45.190;5.722;2023-05-10T20:09:29;19.20;39.90
32173;DHT22;18679;45.190;5.722;2023-05-10T20:12:36;19.10;40.00
32173;DHT22;18679;45.190;5.722;2023-05-10T20:15:45;19.10;39.80
32173;DHT22;18679;45.190;5.722;2023-05-10T20:18:49;19.10;39.60
32173;DHT22;18679;45.190;5.722;2023-05-10T20:21:54;19.10;39.40
32173;DHT22;18679;45.190;5.722;2023-05-10T20:25:08;19.10;39.40
32173;DHT22;18679;45.190;5.722;2023-05-10T20:28:19;19.00;39.20
32173;DHT22;18679;45.190;5.722;2023-05-10T20:31:24;19.00;39.20
32173;DHT22;18679;45.190;5.722;2023-05-10T20:34:28;19.00;39.20
32173;DHT22;18679;45.190;5.722;2023-05-10T20:37:34;18.90;39.30